createdAt,value
2019-03-16T00:00:14.750Z,98479.01
2019-03-16T00:02:45.002Z,98489.65
2019-03-16T00:05:15.316Z,98502.98
2019-03-16T00:07:45.965Z,98391.91
2019-03-16T00:10:16.828Z,98507.97
2019-03-16T00:12:49.157Z,98511.65
2019-03-16T00:15:20.665Z,98517.40
2019-03-16T00:17:51.037Z,98514.34
2019-03-16T00:20:21.622Z,98501.88
2019-03-16T00:22:51.879Z,98501.16
2019-03-16T00:25:22.165Z,98502.52
2019-03-16T00:27:52.767Z,98515.20
2019-03-16T00:30:23.154Z,98504.19
2019-03-16T00:32:53.434Z,98496.36
2019-03-16T00:35:24.063Z,98496.36
2019-03-16T00:37:54.982Z,98499.65
2019-03-16T00:40:25.815Z,98497.45
2019-03-16T00:42:56.576Z,98513.48
2019-03-16T00:45:27.036Z,98511.53
2019-03-16T00:47:58.659Z,98511.53
2019-03-16T00:50:29.117Z,98511.95
2019-03-16T00:52:59.435Z,98517.96
2019-03-16T00:55:29.872Z,98503.97
2019-03-16T00:58:00.490Z,98503.97
2019-03-16T01:00:31.066Z,98508.48
2019-03-16T01:03:01.325Z,98492.17
2019-03-16T01:05:31.574Z,98502.41
2019-03-16T01:08:02.187Z,98501.45
2019-03-16T01:10:32.411Z,98479.99
2019-03-16T01:13:03.005Z,98494.36
2019-03-16T01:15:33.467Z,98494.36
2019-03-16T01:18:03.713Z,98491.40
2019-03-16T01:20:34.027Z,98486.83
2019-03-16T01:23:04.582Z,98490.16
2019-03-16T01:25:34.806Z,98503.70
2019-03-16T01:28:05.110Z,98502.98
2019-03-16T01:30:35.684Z,98517.27
2019-03-16T01:33:06.544Z,98527.38
2019-03-16T01:35:36.865Z,98531.11
2019-03-16T01:38:07.387Z,98535.83
2019-03-16T01:40:37.762Z,98550.88
2019-03-16T01:43:08.069Z,98539.52
2019-03-16T01:45:38.663Z,98533.56
2019-03-16T01:48:08.880Z,98544.97
2019-03-16T01:50:39.269Z,98562.50
2019-03-16T01:53:11.873Z,98558.23
2019-03-16T01:55:42.257Z,98552.51
2019-03-16T01:58:12.474Z,98560.34
2019-03-16T02:00:43.040Z,98551.83
2019-03-16T02:03:13.307Z,98560.75
2019-03-16T02:05:43.532Z,98549.01
2019-03-16T02:08:14.113Z,98559.88
2019-03-16T02:10:44.346Z,98548.20
2019-03-16T02:13:15.040Z,98560.55
2019-03-16T02:15:47.596Z,98539.38
2019-03-16T02:18:19.367Z,98537.27
2019-03-16T02:20:49.629Z,98537.27
2019-03-16T02:23:20.315Z,98548.87
2019-03-16T02:25:50.689Z,98548.87
2019-03-16T02:28:21.171Z,98549.16
2019-03-16T02:30:51.705Z,98550.26
2019-03-16T02:33:21.710Z,98550.26
2019-03-16T02:35:51.977Z,98554.44
2019-03-16T02:38:22.689Z,98554.44
2019-03-16T02:40:52.999Z,98564.16
2019-03-16T02:43:23.110Z,98574.60
2019-03-16T02:45:53.771Z,98590.97
2019-03-16T02:48:25.412Z,98591.41
2019-03-16T02:50:55.637Z,98595.77
2019-03-16T02:53:29.145Z,98607.88
2019-03-16T02:55:59.441Z,98613.80
2019-03-16T02:58:31.622Z,98613.74
2019-03-16T03:01:05.331Z,98605.91
2019-03-16T03:03:37.461Z,98624.33
2019-03-16T03:06:09.569Z,98629.05
2019-03-16T03:08:39.924Z,98629.01
2019-03-16T03:11:10.292Z,98630.47
2019-03-16T03:13:40.583Z,98631.62
2019-03-16T03:16:10.884Z,98625.89
2019-03-16T03:18:41.082Z,98631.77
2019-03-16T03:21:11.397Z,98631.91
2019-03-16T03:23:41.721Z,98631.91
2019-03-16T03:26:12.040Z,98626.64
2019-03-16T03:28:42.208Z,98626.34
2019-03-16T03:31:12.518Z,98631.72
2019-03-16T03:33:59.202Z,98616.76
2019-03-16T03:36:15.532Z,98616.76
2019-03-16T03:38:45.719Z,98633.22
2019-03-16T03:41:15.972Z,98639.38
2019-03-16T03:43:46.457Z,98631.56
2019-03-16T03:46:16.766Z,98641.34
2019-03-16T03:48:47.375Z,98559.63
2019-03-16T03:51:17.659Z,98578.08
2019-03-16T03:53:48.403Z,98641.19
2019-03-16T03:56:19.339Z,98672.16
2019-03-16T03:58:49.654Z,98664.58
2019-03-16T04:01:20.318Z,98664.58
2019-03-16T04:03:50.658Z,98675.41
2019-03-16T04:06:21.063Z,98691.33
2019-03-16T04:08:51.541Z,98611.81
2019-03-16T04:11:22.111Z,98699.89
2019-03-16T04:13:52.343Z,98699.89
2019-03-16T04:16:23.837Z,98667.47
2019-03-16T04:18:53.967Z,98707.13
2019-03-16T04:21:25.289Z,98709.27
2019-03-16T04:23:56.771Z,98709.27
2019-03-16T04:26:27.251Z,98731.38
2019-03-16T04:28:57.558Z,98719.55
2019-03-16T04:31:30.769Z,98735.39
2019-03-16T04:34:01.581Z,98724.94
2019-03-16T04:36:32.174Z,98731.52
2019-03-16T04:39:04.748Z,98736.27
2019-03-16T04:41:35.330Z,98748.52
2019-03-16T04:44:05.950Z,98742.13
2019-03-16T04:46:36.463Z,98734.09
2019-03-16T04:49:07.080Z,98742.92
2019-03-16T04:51:37.739Z,98739.65
2019-03-16T04:54:08.005Z,98739.65
2019-03-16T04:56:38.283Z,98663.27
2019-03-16T04:59:08.431Z,98663.27
2019-03-16T05:01:40.046Z,98758.94
2019-03-16T05:04:10.376Z,98758.94
2019-03-16T05:06:41.065Z,98753.22
2019-03-16T05:09:11.375Z,98760.00
2019-03-16T05:11:41.678Z,98756.52
2019-03-16T05:14:12.214Z,98771.77
2019-03-16T05:16:42.954Z,98766.80
2019-03-16T05:19:13.454Z,98766.80
2019-03-16T05:21:43.607Z,98772.19
2019-03-16T05:24:13.937Z,98774.58
2019-03-16T05:26:44.538Z,98771.12
2019-03-16T05:29:14.675Z,98778.11
2019-03-16T05:31:45.173Z,98778.11
2019-03-16T05:34:17.223Z,98777.70
2019-03-16T05:36:47.772Z,98783.02
2019-03-16T05:39:18.702Z,98786.00
2019-03-16T05:41:49.953Z,98786.00
2019-03-16T05:44:20.216Z,98793.58
2019-03-16T05:46:50.751Z,98778.36
2019-03-16T05:49:21.158Z,98786.30
2019-03-16T05:51:51.387Z,98781.50
2019-03-16T05:54:23.353Z,98781.50
2019-03-16T05:56:54.724Z,98792.66
2019-03-16T05:59:24.954Z,98801.67
2019-03-16T06:01:55.419Z,98801.67
2019-03-16T06:04:25.803Z,98797.84
2019-03-16T06:06:57.046Z,98806.58
2019-03-16T06:09:27.277Z,98813.39
2019-03-16T06:11:58.680Z,98813.39
2019-03-16T06:14:29.026Z,98817.50
2019-03-16T06:16:59.716Z,98808.62
2019-03-16T06:19:30.022Z,98808.62
2019-03-16T06:22:00.645Z,98816.62
2019-03-16T06:24:31.172Z,98811.58
2019-03-16T06:27:01.317Z,98811.58
2019-03-16T06:29:31.519Z,98820.58
2019-03-16T06:32:07.051Z,98813.98
2019-03-16T06:34:37.316Z,98814.63
2019-03-16T06:37:07.899Z,98809.03
2019-03-16T06:39:38.821Z,98809.03
2019-03-16T06:42:11.459Z,98821.56
2019-03-16T06:44:42.362Z,98805.42
2019-03-16T06:47:12.622Z,98817.88
2019-03-16T06:49:43.234Z,98817.88
2019-03-16T06:52:13.782Z,98814.95
2019-03-16T06:54:44.866Z,98815.51
2019-03-16T06:57:15.879Z,98819.66
2019-03-16T06:59:47.576Z,98819.66
2019-03-16T07:02:18.244Z,98815.03
2019-03-16T07:04:49.291Z,98808.44
2019-03-16T07:07:19.865Z,98808.44
2019-03-16T07:09:52.563Z,98813.15
2019-03-16T07:12:23.059Z,98811.77
2019-03-16T07:14:54.644Z,98812.12
2019-03-16T07:17:24.828Z,98809.62
2019-03-16T07:19:56.881Z,98824.11
2019-03-16T07:22:27.474Z,98823.66
2019-03-16T07:24:57.781Z,98823.66
2019-03-16T07:27:28.894Z,98820.80
2019-03-16T07:29:59.406Z,98820.80
2019-03-16T07:32:29.967Z,98811.20
2019-03-16T07:35:00.382Z,98811.20
2019-03-16T07:37:31.645Z,98811.67
2019-03-16T07:40:06.540Z,98806.13
2019-03-16T07:42:37.044Z,98824.22
2019-03-16T07:45:09.023Z,98817.47
2019-03-16T07:47:39.702Z,98805.94
2019-03-16T07:50:10.659Z,98806.91
2019-03-16T07:52:44.303Z,98802.53
2019-03-16T07:55:14.478Z,98802.53
2019-03-16T07:57:45.220Z,98759.39
2019-03-16T08:00:17.726Z,98802.55
2019-03-16T08:02:48.262Z,98789.83
2019-03-16T08:05:19.446Z,98789.83
2019-03-16T08:07:50.951Z,98798.95
2019-03-16T08:10:21.233Z,98798.95
2019-03-16T08:12:53.429Z,98785.59
2019-03-16T08:15:23.840Z,98787.36
2019-03-16T08:17:59.644Z,98781.70
2019-03-16T08:20:31.709Z,98781.98
2019-03-16T08:23:02.536Z,98786.11
2019-03-16T08:25:33.177Z,98786.11
2019-03-16T08:28:04.321Z,98708.99
2019-03-16T08:30:35.194Z,98708.99
2019-03-16T08:33:11.131Z,98802.94
2019-03-16T08:35:41.448Z,98791.06
2019-03-16T08:38:12.510Z,98790.61
2019-03-16T08:40:42.846Z,98790.38
2019-03-16T08:43:13.251Z,98792.33
2019-03-16T08:45:43.613Z,98779.95
2019-03-16T08:48:22.718Z,98789.75
2019-03-16T08:50:48.943Z,98785.48
2019-03-16T08:53:19.471Z,98785.22
2019-03-16T08:55:50.009Z,98788.93
2019-03-16T08:58:20.405Z,98790.77
2019-03-16T09:00:51.964Z,98794.88
2019-03-16T09:03:22.366Z,98799.42
2019-03-16T09:05:52.657Z,98797.86
2019-03-16T09:08:29.574Z,98793.85
2019-03-16T09:11:00.519Z,98801.19
2019-03-16T09:13:33.616Z,98786.91
2019-03-16T09:16:05.256Z,98749.41
2019-03-16T09:18:36.204Z,98797.39
2019-03-16T09:21:08.398Z,98792.23
2019-03-16T09:23:39.004Z,98794.13
2019-03-16T09:26:09.687Z,98788.73
2019-03-16T09:28:41.930Z,98792.23
2019-03-16T09:31:14.039Z,98785.58
2019-03-16T09:33:46.292Z,98783.44
2019-03-16T09:36:22.672Z,98777.00
2019-03-16T09:38:53.943Z,98769.41
2019-03-16T09:41:24.490Z,98769.41
2019-03-16T09:43:54.879Z,98760.55
2019-03-16T09:46:25.182Z,98774.79
2019-03-16T09:48:55.403Z,98757.77
2019-03-16T09:51:26.170Z,98757.77
2019-03-16T09:53:57.002Z,98763.41
2019-03-16T09:56:29.642Z,98753.66
2019-03-16T09:59:00.462Z,98762.03
2019-03-16T10:01:30.864Z,98744.42
2019-03-16T10:04:01.796Z,98745.45
2019-03-16T10:06:40.441Z,98749.41
2019-03-16T10:09:11.021Z,98728.36
2019-03-16T10:11:41.386Z,98723.09
2019-03-16T10:14:11.930Z,98713.52
2019-03-16T10:16:42.247Z,98713.52
2019-03-16T10:19:13.120Z,98718.43
2019-03-16T10:21:43.559Z,98715.88
2019-03-16T10:24:17.048Z,98714.22
2019-03-16T10:26:47.285Z,98710.09
2019-03-16T10:29:17.801Z,98692.66
2019-03-16T10:31:48.283Z,98708.27
2019-03-16T10:34:18.574Z,98703.53
2019-03-16T10:36:48.912Z,98701.95
2019-03-16T10:39:19.221Z,98695.72
2019-03-16T10:41:49.559Z,98698.19
2019-03-16T10:44:21.330Z,98701.36
2019-03-16T10:46:51.665Z,98700.56
2019-03-16T10:49:22.394Z,98696.45
2019-03-16T10:51:52.700Z,98691.27
2019-03-16T10:54:24.517Z,98691.39
2019-03-16T10:56:56.460Z,98687.46
2019-03-16T10:59:27.123Z,98675.41
2019-03-16T11:01:58.160Z,98675.48
2019-03-16T11:04:30.129Z,98675.77
2019-03-16T11:07:00.685Z,98668.28
2019-03-16T11:09:31.542Z,98667.61
2019-03-16T11:12:02.742Z,98661.72
2019-03-16T11:14:33.565Z,98667.00
2019-03-16T11:17:05.055Z,98661.34
2019-03-16T11:19:35.709Z,98666.06
2019-03-16T11:22:08.529Z,98660.99
2019-03-16T11:24:38.919Z,98664.92
2019-03-16T11:27:09.257Z,98651.59
2019-03-16T11:29:40.832Z,98658.55
2019-03-16T11:32:11.439Z,98646.69
2019-03-16T11:34:42.108Z,98649.67
2019-03-16T11:37:12.570Z,98639.07
2019-03-16T11:39:43.653Z,98632.36
2019-03-16T11:42:14.010Z,98630.17
2019-03-16T11:44:47.830Z,98613.47
2019-03-16T11:47:18.266Z,98611.72
2019-03-16T11:49:49.481Z,98611.20
2019-03-16T11:52:22.114Z,98597.63
2019-03-16T11:54:53.076Z,98599.89
2019-03-16T11:57:23.482Z,98595.32
2019-03-16T11:59:54.359Z,98584.48
2019-03-16T12:02:24.631Z,98586.31
2019-03-16T12:04:55.112Z,98585.34
2019-03-16T12:07:25.435Z,98575.27
2019-03-16T12:09:55.993Z,98572.05
2019-03-16T12:12:26.358Z,98564.87
2019-03-16T12:14:58.504Z,98559.32
2019-03-16T12:17:28.914Z,98558.30
2019-03-16T12:19:59.248Z,98548.66
2019-03-16T12:22:29.789Z,98538.72
2019-03-16T12:25:01.281Z,98557.50
2019-03-16T12:27:32.160Z,98557.92
2019-03-16T12:30:03.853Z,98550.63
2019-03-16T12:32:35.276Z,98530.87
2019-03-16T12:35:07.605Z,98532.78
2019-03-16T12:37:37.936Z,98528.86
2019-03-16T12:40:08.694Z,98529.70
2019-03-16T12:42:38.907Z,98528.08
2019-03-16T12:45:12.029Z,98528.63
2019-03-16T12:47:42.799Z,98517.95
2019-03-16T12:50:13.368Z,98519.90
2019-03-16T12:52:43.856Z,98508.85
2019-03-16T12:55:14.505Z,98524.86
2019-03-16T12:57:47.877Z,98515.73
2019-03-16T13:00:18.153Z,98529.35
2019-03-16T13:02:49.253Z,98511.52
2019-03-16T13:05:21.585Z,98527.83
2019-03-16T13:07:53.317Z,98521.36
2019-03-16T13:10:23.554Z,98534.17
2019-03-16T13:12:55.104Z,98518.48
2019-03-16T13:15:26.522Z,98514.91
2019-03-16T13:17:56.969Z,98519.09
2019-03-16T13:20:28.650Z,98510.13
2019-03-16T13:23:00.418Z,98526.47
2019-03-16T13:25:30.835Z,98521.84
2019-03-16T13:28:02.265Z,98510.88
2019-03-16T13:30:32.714Z,98510.53
2019-03-16T13:33:03.369Z,98523.32
2019-03-16T13:35:35.375Z,98521.41
2019-03-16T13:38:06.876Z,98524.24
2019-03-16T13:40:37.660Z,98518.19
2019-03-16T13:43:10.071Z,98509.89
2019-03-16T13:45:40.359Z,98521.58
2019-03-16T13:48:11.089Z,98530.04
2019-03-16T13:50:41.363Z,98524.35
2019-03-16T13:53:11.846Z,98529.84
2019-03-16T13:55:42.570Z,98518.40
2019-03-16T13:58:13.971Z,98527.45
2019-03-16T14:00:44.325Z,98517.06
2019-03-16T14:03:15.349Z,98517.64
2019-03-16T14:05:45.785Z,98501.95
2019-03-16T14:08:16.291Z,98515.11
2019-03-16T14:10:46.900Z,98494.27
2019-03-16T14:13:17.358Z,98520.45
2019-03-16T14:15:47.652Z,98497.48
2019-03-16T14:18:19.802Z,98503.88
2019-03-16T14:20:51.223Z,98507.78
2019-03-16T14:23:22.068Z,98508.95
2019-03-16T14:25:54.237Z,98500.23
2019-03-16T14:28:24.746Z,98504.83
2019-03-16T14:30:55.644Z,98501.73
2019-03-16T14:33:26.068Z,98496.44
2019-03-16T14:36:00.984Z,98495.98
2019-03-16T14:38:32.642Z,98494.46
2019-03-16T14:41:03.388Z,98487.78
2019-03-16T14:43:33.956Z,98493.32
2019-03-16T14:46:05.640Z,98521.41
2019-03-16T14:48:35.856Z,98507.25
2019-03-16T14:51:07.009Z,98505.66
2019-03-16T14:53:37.469Z,98493.92
2019-03-16T14:56:09.166Z,98489.74
2019-03-16T14:58:39.654Z,98493.86
2019-03-16T15:01:13.475Z,98491.23
2019-03-16T15:03:43.744Z,98493.91
2019-03-16T15:06:14.243Z,98500.99
2019-03-16T15:08:44.795Z,98487.23
2019-03-16T15:11:15.571Z,98503.50
2019-03-16T15:13:45.873Z,98494.50
2019-03-16T15:16:16.464Z,98490.50
2019-03-16T15:18:47.317Z,98483.94
2019-03-16T15:21:18.112Z,98463.81
2019-03-16T15:23:48.836Z,98482.48
2019-03-16T15:26:20.528Z,98476.92
2019-03-16T15:28:55.101Z,98493.08
2019-03-16T15:31:25.213Z,98491.53
2019-03-16T15:33:56.834Z,98469.58
2019-03-16T15:36:27.310Z,98469.06
2019-03-16T15:38:57.604Z,98476.47
2019-03-16T15:41:29.781Z,98472.53
2019-03-16T15:44:02.009Z,98475.75
2019-03-16T15:46:33.413Z,98478.41
2019-03-16T15:49:07.203Z,98476.05
2019-03-16T15:51:39.100Z,98461.36
2019-03-16T15:54:09.814Z,98475.26
2019-03-16T15:56:40.140Z,98481.63
2019-03-16T15:59:11.949Z,98474.63
2019-03-16T16:01:42.720Z,98477.63
2019-03-16T16:04:13.068Z,98476.27
2019-03-16T16:06:43.478Z,98471.32
2019-03-16T16:09:14.836Z,98466.87
2019-03-16T16:11:45.213Z,98464.20
2019-03-16T16:14:15.763Z,98477.28
2019-03-16T16:16:50.931Z,98478.24
2019-03-16T16:19:21.989Z,98481.13
2019-03-16T16:21:53.579Z,98473.47
2019-03-16T16:24:23.932Z,98482.38
2019-03-16T16:26:54.396Z,98479.98
2019-03-16T16:29:24.858Z,98476.19
2019-03-16T16:31:55.809Z,98472.61
2019-03-16T16:34:26.386Z,98461.22
2019-03-16T16:36:56.754Z,98462.46
2019-03-16T16:39:26.950Z,98455.85
2019-03-16T16:41:57.350Z,98448.17
2019-03-16T16:44:27.696Z,98466.33
2019-03-16T16:46:58.508Z,98461.30
2019-03-16T16:49:29.942Z,98459.06
2019-03-16T16:52:01.515Z,98463.02
2019-03-16T16:54:31.984Z,98467.22
2019-03-16T16:57:02.759Z,98473.48
2019-03-16T16:59:33.182Z,98470.51
2019-03-16T17:02:04.718Z,98475.75
2019-03-16T17:04:35.276Z,98469.48
2019-03-16T17:07:06.508Z,98487.48
2019-03-16T17:09:37.417Z,98487.41
2019-03-16T17:12:09.604Z,98478.89
2019-03-16T17:14:39.823Z,98483.34
2019-03-16T17:17:11.683Z,98481.54
2019-03-16T17:19:41.965Z,98494.26
2019-03-16T17:22:12.699Z,98491.04
2019-03-16T17:24:43.023Z,98489.11
2019-03-16T17:27:13.284Z,98487.28
2019-03-16T17:29:43.502Z,98488.23
2019-03-16T17:32:13.808Z,98507.28
2019-03-16T17:34:45.251Z,98487.03
2019-03-16T17:37:16.085Z,98497.80
2019-03-16T17:39:46.701Z,98492.36
2019-03-16T17:42:18.306Z,98502.30
2019-03-16T17:44:51.086Z,98489.33
2019-03-16T17:47:21.465Z,98497.19
2019-03-16T17:49:54.104Z,98494.17
2019-03-16T17:52:24.709Z,98493.27
2019-03-16T17:55:10.718Z,98489.19
2019-03-16T17:57:41.085Z,98494.14
2019-03-16T18:00:21.121Z,98491.00
2019-03-16T18:02:56.377Z,98486.41
2019-03-16T18:05:28.081Z,98482.41
2019-03-16T18:07:59.796Z,98480.62
2019-03-16T18:10:33.630Z,98478.55
2019-03-16T18:13:04.449Z,98393.56
2019-03-16T18:15:34.913Z,98482.34
2019-03-16T18:18:05.273Z,98472.09
2019-03-16T18:20:36.663Z,98475.00
2019-03-16T18:23:07.511Z,98467.20
2019-03-16T18:25:38.086Z,98465.03
2019-03-16T18:28:09.616Z,98461.63
2019-03-16T18:30:40.315Z,98466.78
2019-03-16T18:33:10.665Z,98460.52
2019-03-16T18:35:41.168Z,98460.78
2019-03-16T18:38:11.815Z,98455.93
2019-03-16T18:40:45.278Z,98455.67
2019-03-16T18:43:15.595Z,98448.63
2019-03-16T18:45:46.217Z,98447.69
2019-03-16T18:48:20.898Z,98441.14
2019-03-16T18:50:51.106Z,98432.59
2019-03-16T18:53:22.926Z,98431.06
2019-03-16T18:56:00.626Z,98430.58
2019-03-16T18:58:39.087Z,98434.12
2019-03-16T19:01:19.908Z,98436.74
2019-03-16T19:03:51.745Z,98435.12
2019-03-16T19:07:14.820Z,98440.89
2019-03-16T19:09:29.697Z,98448.59
2019-03-16T19:12:00.335Z,98429.23
2019-03-16T19:14:33.973Z,98443.00
2019-03-16T19:17:04.717Z,98445.08
2019-03-16T19:19:36.598Z,98439.84
2019-03-16T19:22:11.745Z,98432.99
2019-03-16T19:24:44.582Z,98424.70
2019-03-16T19:27:19.008Z,98428.94
2019-03-16T19:29:49.680Z,98421.60
2019-03-16T19:32:33.640Z,98417.28
2019-03-16T19:34:58.827Z,98420.35
2019-03-16T19:37:29.795Z,98410.95
2019-03-16T19:40:05.149Z,98413.06
2019-03-16T19:42:35.552Z,98416.05
2019-03-16T19:45:08.593Z,98411.83
2019-03-16T19:47:44.390Z,98406.31
2019-03-16T19:50:19.032Z,98407.87
2019-03-16T19:52:49.554Z,98403.66
2019-03-16T19:55:23.576Z,98410.91
2019-03-16T19:57:58.932Z,98410.56
2019-03-16T20:00:29.385Z,98400.32
2019-03-16T20:03:00.019Z,98383.77
2019-03-16T20:05:33.554Z,98401.58
2019-03-16T20:08:04.342Z,98307.94
2019-03-16T20:10:36.474Z,98391.23
2019-03-16T20:13:11.993Z,98391.17
2019-03-16T20:15:44.637Z,98387.69
2019-03-16T20:18:16.956Z,98386.52
2019-03-16T20:20:51.532Z,98392.64
2019-03-16T20:23:23.778Z,98398.70
2019-03-16T20:25:54.807Z,98300.26
2019-03-16T20:28:25.853Z,98391.16
2019-03-16T20:30:59.389Z,98399.14
2019-03-16T20:33:30.633Z,98392.16
2019-03-16T20:36:05.096Z,98398.75
2019-03-16T20:38:35.682Z,98386.44
2019-03-16T20:41:08.584Z,98379.42
2019-03-16T20:43:40.387Z,98386.55
2019-03-16T20:46:19.609Z,98305.83
2019-03-16T20:48:50.448Z,98386.77
2019-03-16T20:51:23.871Z,98390.52
2019-03-16T20:53:55.004Z,98385.15
2019-03-16T20:56:26.572Z,98389.84
2019-03-16T20:58:56.892Z,98298.06
2019-03-16T21:01:27.285Z,98383.42
2019-03-16T21:03:58.452Z,98383.78
2019-03-16T21:06:30.275Z,98383.09
2019-03-16T21:09:03.508Z,98382.36
2019-03-16T21:11:32.804Z,98389.05
2019-03-16T21:14:03.395Z,98382.25
2019-03-16T21:16:33.723Z,98381.85
2019-03-16T21:19:04.282Z,98389.91
2019-03-16T21:21:34.573Z,98378.66
2019-03-16T21:24:07.343Z,98379.23
2019-03-16T21:26:36.919Z,98384.28
2019-03-16T21:29:07.153Z,98378.04
2019-03-16T21:31:40.535Z,98380.97
2019-03-16T21:34:11.590Z,98375.58
2019-03-16T21:36:41.998Z,98375.47
2019-03-16T21:39:12.304Z,98371.91
2019-03-16T21:41:44.401Z,98372.75
2019-03-16T21:44:14.800Z,98374.16
2019-03-16T21:46:45.642Z,98369.30
2019-03-16T21:49:16.489Z,98371.95
2019-03-16T21:51:46.882Z,98362.19
2019-03-16T21:54:17.228Z,98365.02
2019-03-16T21:56:47.634Z,98362.80
2019-03-16T21:59:18.094Z,98359.78
2019-03-16T22:01:48.524Z,98360.08
2019-03-16T22:05:00.378Z,98351.44
2019-03-16T22:07:38.320Z,98345.92
2019-03-16T22:10:18.173Z,98344.18
2019-03-16T22:13:03.227Z,98338.34
2019-03-16T22:16:29.972Z,98343.09
2019-03-16T22:22:48.453Z,98260.45
2019-03-16T22:35:42.780Z,98317.55
2019-03-16T22:38:27.883Z,98313.38
2019-03-16T22:41:05.821Z,98307.50
2019-03-16T22:43:50.994Z,98222.72
2019-03-16T22:47:07.862Z,98302.77
2019-03-16T22:49:59.935Z,98210.52
2019-03-16T22:52:59.670Z,98299.70
2019-03-16T22:56:03.438Z,98299.02
2019-03-16T23:02:09.841Z,98288.45
2019-03-16T23:09:45.170Z,98201.73
2019-03-16T23:13:01.624Z,98277.97
2019-03-16T23:16:01.500Z,98195.81
2019-03-16T23:19:26.882Z,98280.25
2019-03-16T23:23:08.701Z,98182.49
2019-03-16T23:25:58.458Z,98269.34
2019-03-16T23:28:37.119Z,98265.75
2019-03-16T23:31:28.322Z,98270.46
2019-03-16T23:34:30.368Z,98262.34
2019-03-16T23:37:29.817Z,98260.09
2019-03-16T23:40:14.688Z,98257.51
2019-03-16T23:49:07.888Z,98238.09
2019-03-16T23:56:05.656Z,98148.76
2019-03-16T23:59:05.991Z,98231.34
